sensor_id;sensor_type;location;lat;lon;timestamp;P1;durP1;ratioP1;P2;durP2;ratioP2
4986;SDS011;12674;51.500;7.552;2023-10-31T00:01:01;1.33;;;1.10;;
4986;SDS011;12674;51.500;7.552;2023-10-31T00:03:04;1.20;;;1.10;;
4986;SDS011;12674;51.500;7.552;2023-10-31T00:05:06;1.67;;;1.27;;
4986;SDS011;12674;51.500;7.552;2023-10-31T00:07:09;4.32;;;1.27;;
4986;SDS011;12674;51.500;7.552;2023-10-31T00:09:14;1.30;;;1.20;;
4986;SDS011;12674;51.500;7.552;2023-10-31T00:11:17;1.45;;;1.35;;
4986;SDS011;12674;51.500;7.552;2023-10-31T00:13:18;1.50;;;1.40;;
4986;SDS011;12674;51.500;7.552;2023-10-31T00:15:21;5.13;;;1.60;;
4986;SDS011;12674;51.500;7.552;2023-10-31T00:17:26;4.20;;;2.47;;
4986;SDS011;12674;51.500;7.552;2023-10-31T00:19:29;1.60;;;1.50;;
4986;SDS011;12674;51.500;7.552;2023-10-31T00:21:32;2.53;;;1.90;;
4986;SDS011;12674;51.500;7.552;2023-10-31T00:23:41;2.20;;;1.60;;
4986;SDS011;12674;51.500;7.552;2023-10-31T00:25:46;3.35;;;2.28;;
4986;SDS011;12674;51.500;7.552;2023-10-31T00:27:49;2.38;;;2.13;;
4986;SDS011;12674;51.500;7.552;2023-10-31T00:29:52;2.40;;;2.20;;
4986;SDS011;12674;51.500;7.552;2023-10-31T00:31:54;2.13;;;2.00;;
4986;SDS011;12674;51.500;7.552;2023-10-31T00:33:57;2.53;;;2.42;;
4986;SDS011;12674;51.500;7.552;2023-10-31T00:36:02;2.38;;;2.28;;
4986;SDS011;12674;51.500;7.552;2023-10-31T00:38:05;1.80;;;1.70;;
4986;SDS011;12674;51.500;7.552;2023-10-31T00:40:08;2.38;;;1.90;;
4986;SDS011;12674;51.500;7.552;2023-10-31T00:42:13;3.38;;;1.77;;
4986;SDS011;12674;51.500;7.552;2023-10-31T00:44:17;2.38;;;2.22;;
4986;SDS011;12674;51.500;7.552;2023-10-31T00:46:20;1.70;;;1.60;;
4986;SDS011;12674;51.500;7.552;2023-10-31T00:48:22;3.13;;;2.10;;
4986;SDS011;12674;51.500;7.552;2023-10-31T00:50:25;3.73;;;2.00;;
4986;SDS011;12674;51.500;7.552;2023-10-31T00:52:28;8.83;;;2.07;;
4986;SDS011;12674;51.500;7.552;2023-10-31T00:54:31;6.10;;;1.90;;
4986;SDS011;12674;51.500;7.552;2023-10-31T00:56:34;1.90;;;1.80;;
4986;SDS011;12674;51.500;7.552;2023-10-31T00:58:38;2.60;;;1.90;;
4986;SDS011;12674;51.500;7.552;2023-10-31T01:00:41;2.83;;;1.70;;
4986;SDS011;12674;51.500;7.552;2023-10-31T01:02:44;4.43;;;1.60;;
4986;SDS011;12674;51.500;7.552;2023-10-31T01:04:47;1.87;;;1.77;;
4986;SDS011;12674;51.500;7.552;2023-10-31T01:06:50;2.10;;;2.00;;
4986;SDS011;12674;51.500;7.552;2023-10-31T01:08:53;2.00;;;1.90;;
4986;SDS011;12674;51.500;7.552;2023-10-31T01:10:56;5.00;;;1.70;;
4986;SDS011;12674;51.500;7.552;2023-10-31T01:12:59;2.70;;;2.20;;
4986;SDS011;12674;51.500;7.552;2023-10-31T01:15:04;1.77;;;1.67;;
4986;SDS011;12674;51.500;7.552;2023-10-31T01:17:08;8.53;;;1.60;;
4986;SDS011;12674;51.500;7.552;2023-10-31T01:19:10;1.20;;;1.20;;
4986;SDS011;12674;51.500;7.552;2023-10-31T01:21:13;3.90;;;1.77;;
4986;SDS011;12674;51.500;7.552;2023-10-31T01:23:16;0.97;;;0.97;;
4986;SDS011;12674;51.500;7.552;2023-10-31T01:25:19;3.03;;;1.13;;
4986;SDS011;12674;51.500;7.552;2023-10-31T01:27:22;3.17;;;1.30;;
4986;SDS011;12674;51.500;7.552;2023-10-31T01:29:24;1.57;;;1.10;;
4986;SDS011;12674;51.500;7.552;2023-10-31T01:31:28;2.30;;;0.80;;
4986;SDS011;12674;51.500;7.552;2023-10-31T01:33:31;1.10;;;1.00;;
4986;SDS011;12674;51.500;7.552;2023-10-31T01:35:34;2.77;;;1.00;;
4986;SDS011;12674;51.500;7.552;2023-10-31T01:37:36;1.00;;;1.00;;
4986;SDS011;12674;51.500;7.552;2023-10-31T01:39:39;0.83;;;0.83;;
4986;SDS011;12674;51.500;7.552;2023-10-31T01:41:42;4.47;;;1.37;;
4986;SDS011;12674;51.500;7.552;2023-10-31T01:43:45;0.80;;;0.80;;
4986;SDS011;12674;51.500;7.552;2023-10-31T01:45:48;1.73;;;0.97;;
4986;SDS011;12674;51.500;7.552;2023-10-31T01:47:52;2.13;;;1.17;;
4986;SDS011;12674;51.500;7.552;2023-10-31T01:49:54;1.03;;;0.90;;
4986;SDS011;12674;51.500;7.552;2023-10-31T01:51:58;2.87;;;0.90;;
4986;SDS011;12674;51.500;7.552;2023-10-31T01:54:01;1.43;;;1.10;;
4986;SDS011;12674;51.500;7.552;2023-10-31T01:56:04;3.17;;;1.13;;
4986;SDS011;12674;51.500;7.552;2023-10-31T01:58:07;2.40;;;1.00;;
4986;SDS011;12674;51.500;7.552;2023-10-31T02:00:11;2.53;;;1.40;;
4986;SDS011;12674;51.500;7.552;2023-10-31T02:02:15;2.13;;;1.20;;
4986;SDS011;12674;51.500;7.552;2023-10-31T02:04:20;1.30;;;1.20;;
4986;SDS011;12674;51.500;7.552;2023-10-31T02:06:23;1.50;;;1.40;;
4986;SDS011;12674;51.500;7.552;2023-10-31T02:08:28;2.70;;;1.70;;
4986;SDS011;12674;51.500;7.552;2023-10-31T02:10:31;2.70;;;1.17;;
4986;SDS011;12674;51.500;7.552;2023-10-31T02:12:34;1.67;;;1.57;;
4986;SDS011;12674;51.500;7.552;2023-10-31T02:14:38;3.00;;;1.80;;
4986;SDS011;12674;51.500;7.552;2023-10-31T02:16:41;2.77;;;1.60;;
4986;SDS011;12674;51.500;7.552;2023-10-31T02:18:45;3.23;;;2.13;;
4986;SDS011;12674;51.500;7.552;2023-10-31T02:20:49;5.10;;;1.77;;
4986;SDS011;12674;51.500;7.552;2023-10-31T02:22:53;4.10;;;2.53;;
4986;SDS011;12674;51.500;7.552;2023-10-31T02:24:59;2.23;;;2.03;;
4986;SDS011;12674;51.500;7.552;2023-10-31T02:27:02;2.67;;;2.23;;
4986;SDS011;12674;51.500;7.552;2023-10-31T02:29:05;3.30;;;2.30;;
4986;SDS011;12674;51.500;7.552;2023-10-31T02:31:08;3.30;;;2.37;;
4986;SDS011;12674;51.500;7.552;2023-10-31T02:33:12;4.50;;;2.53;;
4986;SDS011;12674;51.500;7.552;2023-10-31T02:35:15;3.30;;;2.50;;
4986;SDS011;12674;51.500;7.552;2023-10-31T02:37:18;2.70;;;2.50;;
4986;SDS011;12674;51.500;7.552;2023-10-31T02:39:22;3.20;;;2.27;;
4986;SDS011;12674;51.500;7.552;2023-10-31T02:41:24;5.43;;;2.37;;
4986;SDS011;12674;51.500;7.552;2023-10-31T02:43:27;7.73;;;2.50;;
4986;SDS011;12674;51.500;7.552;2023-10-31T02:45:30;5.97;;;2.57;;
4986;SDS011;12674;51.500;7.552;2023-10-31T02:47:34;4.37;;;2.40;;
4986;SDS011;12674;51.500;7.552;2023-10-31T02:49:36;4.53;;;2.20;;
4986;SDS011;12674;51.500;7.552;2023-10-31T02:51:39;4.20;;;2.73;;
4986;SDS011;12674;51.500;7.552;2023-10-31T02:53:42;3.33;;;2.13;;
4986;SDS011;12674;51.500;7.552;2023-10-31T02:55:46;3.03;;;2.03;;
4986;SDS011;12674;51.500;7.552;2023-10-31T02:57:49;6.87;;;2.33;;
4986;SDS011;12674;51.500;7.552;2023-10-31T02:59:52;2.40;;;1.90;;
4986;SDS011;12674;51.500;7.552;2023-10-31T03:01:56;2.97;;;2.23;;
4986;SDS011;12674;51.500;7.552;2023-10-31T03:04:00;3.30;;;1.90;;
4986;SDS011;12674;51.500;7.552;2023-10-31T03:06:04;2.57;;;1.97;;
4986;SDS011;12674;51.500;7.552;2023-10-31T03:08:07;1.80;;;1.70;;
4986;SDS011;12674;51.500;7.552;2023-10-31T03:10:11;4.60;;;1.97;;
4986;SDS011;12674;51.500;7.552;2023-10-31T03:12:16;1.67;;;1.57;;
4986;SDS011;12674;51.500;7.552;2023-10-31T03:14:19;4.80;;;1.70;;
4986;SDS011;12674;51.500;7.552;2023-10-31T03:16:22;1.90;;;1.77;;
4986;SDS011;12674;51.500;7.552;2023-10-31T03:18:25;2.97;;;2.13;;
4986;SDS011;12674;51.500;7.552;2023-10-31T03:20:28;2.80;;;2.10;;
4986;SDS011;12674;51.500;7.552;2023-10-31T03:22:31;5.30;;;1.90;;
4986;SDS011;12674;51.500;7.552;2023-10-31T03:24:34;3.10;;;1.90;;
4986;SDS011;12674;51.500;7.552;2023-10-31T03:26:37;2.13;;;1.90;;
4986;SDS011;12674;51.500;7.552;2023-10-31T03:28:42;2.17;;;1.97;;
4986;SDS011;12674;51.500;7.552;2023-10-31T03:30:46;3.03;;;2.00;;
4986;SDS011;12674;51.500;7.552;2023-10-31T03:32:49;5.00;;;2.37;;
4986;SDS011;12674;51.500;7.552;2023-10-31T03:34:52;8.93;;;2.80;;
4986;SDS011;12674;51.500;7.552;2023-10-31T03:36:55;2.70;;;2.50;;
4986;SDS011;12674;51.500;7.552;2023-10-31T03:38:58;4.03;;;3.10;;
4986;SDS011;12674;51.500;7.552;2023-10-31T03:41:00;5.53;;;3.43;;
4986;SDS011;12674;51.500;7.552;2023-10-31T03:43:03;4.40;;;3.70;;
4986;SDS011;12674;51.500;7.552;2023-10-31T03:45:08;12.13;;;4.60;;
4986;SDS011;12674;51.500;7.552;2023-10-31T03:47:14;8.43;;;4.63;;
4986;SDS011;12674;51.500;7.552;2023-10-31T03:49:17;8.43;;;4.43;;
4986;SDS011;12674;51.500;7.552;2023-10-31T03:51:20;7.90;;;5.20;;
4986;SDS011;12674;51.500;7.552;2023-10-31T03:53:23;5.63;;;4.70;;
4986;SDS011;12674;51.500;7.552;2023-10-31T03:55:26;7.37;;;5.27;;
4986;SDS011;12674;51.500;7.552;2023-10-31T03:57:29;13.17;;;4.83;;
4986;SDS011;12674;51.500;7.552;2023-10-31T03:59:32;5.57;;;4.60;;
4986;SDS011;12674;51.500;7.552;2023-10-31T04:01:36;7.30;;;4.50;;
4986;SDS011;12674;51.500;7.552;2023-10-31T04:03:39;9.87;;;5.70;;
4986;SDS011;12674;51.500;7.552;2023-10-31T04:05:42;14.07;;;5.70;;
4986;SDS011;12674;51.500;7.552;2023-10-31T04:07:46;8.90;;;6.00;;
4986;SDS011;12674;51.500;7.552;2023-10-31T04:09:49;12.07;;;5.00;;
4986;SDS011;12674;51.500;7.552;2023-10-31T04:11:52;7.00;;;5.70;;
4986;SDS011;12674;51.500;7.552;2023-10-31T04:13:55;11.27;;;5.50;;
4986;SDS011;12674;51.500;7.552;2023-10-31T04:15:58;9.47;;;5.60;;
4986;SDS011;12674;51.500;7.552;2023-10-31T04:18:02;8.50;;;5.07;;
4986;SDS011;12674;51.500;7.552;2023-10-31T04:20:06;9.10;;;5.30;;
4986;SDS011;12674;51.500;7.552;2023-10-31T04:22:10;11.17;;;5.13;;
4986;SDS011;12674;51.500;7.552;2023-10-31T04:24:12;9.20;;;5.20;;
4986;SDS011;12674;51.500;7.552;2023-10-31T04:26:15;6.63;;;4.07;;
4986;SDS011;12674;51.500;7.552;2023-10-31T04:28:18;8.00;;;4.40;;
4986;SDS011;12674;51.500;7.552;2023-10-31T04:30:21;5.77;;;4.63;;
4986;SDS011;12674;51.500;7.552;2023-10-31T04:32:24;5.63;;;4.40;;
4986;SDS011;12674;51.500;7.552;2023-10-31T04:34:29;7.03;;;3.90;;
4986;SDS011;12674;51.500;7.552;2023-10-31T04:36:32;7.50;;;4.53;;
4986;SDS011;12674;51.500;7.552;2023-10-31T04:38:36;9.13;;;4.60;;
4986;SDS011;12674;51.500;7.552;2023-10-31T04:40:39;7.40;;;4.73;;
4986;SDS011;12674;51.500;7.552;2023-10-31T04:42:42;6.20;;;5.27;;
4986;SDS011;12674;51.500;7.552;2023-10-31T04:44:45;7.03;;;5.43;;
4986;SDS011;12674;51.500;7.552;2023-10-31T04:46:48;7.47;;;5.60;;
4986;SDS011;12674;51.500;7.552;2023-10-31T04:48:51;7.10;;;5.03;;
4986;SDS011;12674;51.500;7.552;2023-10-31T04:50:57;5.13;;;4.63;;
4986;SDS011;12674;51.500;7.552;2023-10-31T04:53:00;9.37;;;5.17;;
4986;SDS011;12674;51.500;7.552;2023-10-31T04:55:03;6.37;;;5.00;;
4986;SDS011;12674;51.500;7.552;2023-10-31T04:57:07;14.23;;;6.03;;
4986;SDS011;12674;51.500;7.552;2023-10-31T04:59:10;8.90;;;5.90;;
4986;SDS011;12674;51.500;7.552;2023-10-31T05:01:13;7.77;;;5.23;;
4986;SDS011;12674;51.500;7.552;2023-10-31T05:03:17;8.37;;;5.73;;
4986;SDS011;12674;51.500;7.552;2023-10-31T05:05:20;7.80;;;5.90;;
4986;SDS011;12674;51.500;7.552;2023-10-31T05:07:24;10.77;;;6.93;;
4986;SDS011;12674;51.500;7.552;2023-10-31T05:09:27;13.10;;;6.37;;
4986;SDS011;12674;51.500;7.552;2023-10-31T05:11:31;6.83;;;5.53;;
4986;SDS011;12674;51.500;7.552;2023-10-31T05:13:34;6.10;;;5.40;;
4986;SDS011;12674;51.500;7.552;2023-10-31T05:15:37;6.43;;;4.63;;
4986;SDS011;12674;51.500;7.552;2023-10-31T05:17:40;6.53;;;5.17;;
4986;SDS011;12674;51.500;7.552;2023-10-31T05:19:43;10.00;;;4.93;;
4986;SDS011;12674;51.500;7.552;2023-10-31T05:21:46;13.43;;;4.60;;
4986;SDS011;12674;51.500;7.552;2023-10-31T05:23:50;11.70;;;4.73;;
4986;SDS011;12674;51.500;7.552;2023-10-31T05:25:53;7.27;;;3.90;;
4986;SDS011;12674;51.500;7.552;2023-10-31T05:27:57;5.70;;;4.50;;
4986;SDS011;12674;51.500;7.552;2023-10-31T05:29:59;6.70;;;4.27;;
4986;SDS011;12674;51.500;7.552;2023-10-31T05:32:02;5.97;;;4.53;;
4986;SDS011;12674;51.500;7.552;2023-10-31T05:34:05;7.00;;;5.20;;
4986;SDS011;12674;51.500;7.552;2023-10-31T05:36:17;10.57;;;4.83;;
4986;SDS011;12674;51.500;7.552;2023-10-31T05:38:20;7.50;;;4.70;;
4986;SDS011;12674;51.500;7.552;2023-10-31T05:40:24;7.53;;;3.60;;
4986;SDS011;12674;51.500;7.552;2023-10-31T05:42:28;7.67;;;4.57;;
4986;SDS011;12674;51.500;7.552;2023-10-31T05:44:31;4.90;;;4.17;;
4986;SDS011;12674;51.500;7.552;2023-10-31T05:46:37;4.73;;;3.87;;
4986;SDS011;12674;51.500;7.552;2023-10-31T05:48:41;7.17;;;4.37;;
4986;SDS011;12674;51.500;7.552;2023-10-31T05:50:45;6.10;;;3.77;;
4986;SDS011;12674;51.500;7.552;2023-10-31T05:52:48;9.50;;;4.50;;
4986;SDS011;12674;51.500;7.552;2023-10-31T05:54:51;5.87;;;4.13;;
4986;SDS011;12674;51.500;7.552;2023-10-31T05:56:56;6.30;;;4.03;;
4986;SDS011;12674;51.500;7.552;2023-10-31T05:58:59;6.10;;;4.00;;
4986;SDS011;12674;51.500;7.552;2023-10-31T06:01:02;8.47;;;4.90;;
4986;SDS011;12674;51.500;7.552;2023-10-31T06:03:05;4.20;;;3.63;;
4986;SDS011;12674;51.500;7.552;2023-10-31T06:05:10;5.50;;;4.37;;
4986;SDS011;12674;51.500;7.552;2023-10-31T06:07:13;6.93;;;4.50;;
4986;SDS011;12674;51.500;7.552;2023-10-31T06:09:16;4.90;;;4.37;;
4986;SDS011;12674;51.500;7.552;2023-10-31T06:11:19;6.37;;;4.13;;
4986;SDS011;12674;51.500;7.552;2023-10-31T06:13:23;6.50;;;4.03;;
4986;SDS011;12674;51.500;7.552;2023-10-31T06:15:27;6.53;;;3.63;;
4986;SDS011;12674;51.500;7.552;2023-10-31T06:17:30;4.93;;;4.23;;
4986;SDS011;12674;51.500;7.552;2023-10-31T06:19:35;11.60;;;4.40;;
4986;SDS011;12674;51.500;7.552;2023-10-31T06:21:39;13.60;;;4.60;;
4986;SDS011;12674;51.500;7.552;2023-10-31T06:23:41;6.03;;;4.60;;
4986;SDS011;12674;51.500;7.552;2023-10-31T06:25:47;7.27;;;5.23;;
4986;SDS011;12674;51.500;7.552;2023-10-31T06:27:50;6.37;;;5.17;;
4986;SDS011;12674;51.500;7.552;2023-10-31T06:29:55;9.80;;;6.47;;
4986;SDS011;12674;51.500;7.552;2023-10-31T06:32:17;8.70;;;6.47;;
4986;SDS011;12674;51.500;7.552;2023-10-31T06:34:21;9.10;;;7.07;;
4986;SDS011;12674;51.500;7.552;2023-10-31T06:36:24;14.80;;;7.57;;
4986;SDS011;12674;51.500;7.552;2023-10-31T06:38:27;9.30;;;7.60;;
4986;SDS011;12674;51.500;7.552;2023-10-31T06:40:29;11.00;;;7.60;;
4986;SDS011;12674;51.500;7.552;2023-10-31T06:42:32;11.50;;;8.20;;
4986;SDS011;12674;51.500;7.552;2023-10-31T06:44:35;13.20;;;9.20;;
4986;SDS011;12674;51.500;7.552;2023-10-31T06:46:40;10.27;;;8.17;;
4986;SDS011;12674;51.500;7.552;2023-10-31T06:48:43;11.63;;;9.93;;
4986;SDS011;12674;51.500;7.552;2023-10-31T06:50:46;9.17;;;8.27;;
4986;SDS011;12674;51.500;7.552;2023-10-31T06:52:49;12.17;;;9.03;;
4986;SDS011;12674;51.500;7.552;2023-10-31T06:55:02;15.83;;;9.33;;
4986;SDS011;12674;51.500;7.552;2023-10-31T06:57:05;13.07;;;9.50;;
4986;SDS011;12674;51.500;7.552;2023-10-31T06:59:08;13.03;;;9.93;;
4986;SDS011;12674;51.500;7.552;2023-10-31T07:01:11;13.13;;;9.10;;
4986;SDS011;12674;51.500;7.552;2023-10-31T07:03:16;12.07;;;9.10;;
4986;SDS011;12674;51.500;7.552;2023-10-31T07:05:20;11.77;;;9.87;;
4986;SDS011;12674;51.500;7.552;2023-10-31T07:07:23;15.00;;;10.70;;
4986;SDS011;12674;51.500;7.552;2023-10-31T07:09:26;15.10;;;9.50;;
4986;SDS011;12674;51.500;7.552;2023-10-31T07:11:29;17.73;;;10.10;;
4986;SDS011;12674;51.500;7.552;2023-10-31T07:13:33;15.27;;;10.80;;
4986;SDS011;12674;51.500;7.552;2023-10-31T07:15:36;13.20;;;9.73;;
4986;SDS011;12674;51.500;7.552;2023-10-31T07:17:40;15.20;;;10.80;;
4986;SDS011;12674;51.500;7.552;2023-10-31T07:19:45;14.23;;;10.70;;
4986;SDS011;12674;51.500;7.552;2023-10-31T07:21:48;17.23;;;11.23;;
4986;SDS011;12674;51.500;7.552;2023-10-31T07:23:50;55.43;;;13.53;;
4986;SDS011;12674;51.500;7.552;2023-10-31T07:25:53;15.77;;;11.40;;
4986;SDS011;12674;51.500;7.552;2023-10-31T07:27:55;103.27;;;19.67;;
4986;SDS011;12674;51.500;7.552;2023-10-31T07:29:58;89.93;;;15.53;;
4986;SDS011;12674;51.500;7.552;2023-10-31T07:32:00;129.20;;;17.53;;
4986;SDS011;12674;51.500;7.552;2023-10-31T07:34:03;345.97;;;37.23;;
4986;SDS011;12674;51.500;7.552;2023-10-31T07:36:08;179.17;;;23.87;;
4986;SDS011;12674;51.500;7.552;2023-10-31T07:38:11;160.80;;;18.30;;
4986;SDS011;12674;51.500;7.552;2023-10-31T07:40:14;492.73;;;54.67;;
4986;SDS011;12674;51.500;7.552;2023-10-31T07:42:16;71.23;;;12.50;;
4986;SDS011;12674;51.500;7.552;2023-10-31T07:44:19;18.40;;;9.87;;
4986;SDS011;12674;51.500;7.552;2023-10-31T07:46:22;73.27;;;14.30;;
4986;SDS011;12674;51.500;7.552;2023-10-31T07:48:25;252.00;;;26.20;;
4986;SDS011;12674;51.500;7.552;2023-10-31T07:50:28;45.57;;;11.00;;
4986;SDS011;12674;51.500;7.552;2023-10-31T07:52:32;116.57;;;17.70;;
4986;SDS011;12674;51.500;7.552;2023-10-31T07:54:38;31.43;;;9.20;;
4986;SDS011;12674;51.500;7.552;2023-10-31T07:56:41;96.10;;;13.73;;
4986;SDS011;12674;51.500;7.552;2023-10-31T07:58:44;39.83;;;10.13;;
4986;SDS011;12674;51.500;7.552;2023-10-31T08:00:47;17.30;;;7.37;;
4986;SDS011;12674;51.500;7.552;2023-10-31T08:02:50;25.03;;;8.80;;
4986;SDS011;12674;51.500;7.552;2023-10-31T08:04:56;11.50;;;6.60;;
4986;SDS011;12674;51.500;7.552;2023-10-31T08:06:59;27.30;;;6.63;;
4986;SDS011;12674;51.500;7.552;2023-10-31T08:09:03;9.73;;;5.67;;
4986;SDS011;12674;51.500;7.552;2023-10-31T08:11:09;9.57;;;5.43;;
4986;SDS011;12674;51.500;7.552;2023-10-31T08:13:13;5.97;;;5.07;;
4986;SDS011;12674;51.500;7.552;2023-10-31T08:15:16;6.00;;;5.13;;
4986;SDS011;12674;51.500;7.552;2023-10-31T08:17:19;7.37;;;5.63;;
4986;SDS011;12674;51.500;7.552;2023-10-31T08:19:22;6.73;;;5.43;;
4986;SDS011;12674;51.500;7.552;2023-10-31T08:21:25;9.37;;;5.50;;
4986;SDS011;12674;51.500;7.552;2023-10-31T08:23:29;6.10;;;4.87;;
4986;SDS011;12674;51.500;7.552;2023-10-31T08:25:33;7.87;;;5.67;;
4986;SDS011;12674;51.500;7.552;2023-10-31T08:27:36;18.97;;;6.70;;
4986;SDS011;12674;51.500;7.552;2023-10-31T08:29:39;9.63;;;5.70;;
4986;SDS011;12674;51.500;7.552;2023-10-31T08:31:42;23.80;;;6.07;;
4986;SDS011;12674;51.500;7.552;2023-10-31T08:33:45;16.27;;;6.57;;
4986;SDS011;12674;51.500;7.552;2023-10-31T08:35:49;7.73;;;5.87;;
4986;SDS011;12674;51.500;7.552;2023-10-31T08:37:52;15.43;;;5.63;;
4986;SDS011;12674;51.500;7.552;2023-10-31T08:39:55;6.00;;;5.40;;
4986;SDS011;12674;51.500;7.552;2023-10-31T08:41:59;7.20;;;5.67;;
4986;SDS011;12674;51.500;7.552;2023-10-31T08:44:01;8.60;;;5.90;;
4986;SDS011;12674;51.500;7.552;2023-10-31T08:46:05;7.77;;;6.30;;
4986;SDS011;12674;51.500;7.552;2023-10-31T08:48:08;8.43;;;6.00;;
4986;SDS011;12674;51.500;7.552;2023-10-31T08:50:11;9.97;;;7.00;;
4986;SDS011;12674;51.500;7.552;2023-10-31T08:52:15;9.80;;;5.90;;
4986;SDS011;12674;51.500;7.552;2023-10-31T08:54:19;8.47;;;5.90;;
4986;SDS011;12674;51.500;7.552;2023-10-31T08:56:22;6.17;;;5.53;;
4986;SDS011;12674;51.500;7.552;2023-10-31T08:58:25;6.10;;;5.60;;
4986;SDS011;12674;51.500;7.552;2023-10-31T09:00:30;178.77;;;20.17;;
4986;SDS011;12674;51.500;7.552;2023-10-31T09:02:33;26.53;;;7.40;;
4986;SDS011;12674;51.500;7.552;2023-10-31T09:04:36;15.40;;;6.50;;
4986;SDS011;12674;51.500;7.552;2023-10-31T09:06:39;11.17;;;5.00;;
4986;SDS011;12674;51.500;7.552;2023-10-31T09:08:42;72.60;;;12.10;;
4986;SDS011;12674;51.500;7.552;2023-10-31T09:10:44;7.53;;;5.50;;
4986;SDS011;12674;51.500;7.552;2023-10-31T09:12:48;15.87;;;6.30;;
4986;SDS011;12674;51.500;7.552;2023-10-31T09:14:52;73.53;;;7.40;;
4986;SDS011;12674;51.500;7.552;2023-10-31T09:16:55;71.27;;;9.73;;
4986;SDS011;12674;51.500;7.552;2023-10-31T09:18:57;7.60;;;4.90;;
4986;SDS011;12674;51.500;7.552;2023-10-31T09:21:00;118.27;;;12.73;;
4986;SDS011;12674;51.500;7.552;2023-10-31T09:23:03;42.40;;;7.93;;
4986;SDS011;12674;51.500;7.552;2023-10-31T09:25:06;20.93;;;5.93;;
4986;SDS011;12674;51.500;7.552;2023-10-31T09:27:09;14.27;;;5.10;;
4986;SDS011;12674;51.500;7.552;2023-10-31T09:29:12;6.65;;;4.43;;
4986;SDS011;12674;51.500;7.552;2023-10-31T09:31:31;5.27;;;3.97;;
4986;SDS011;12674;51.500;7.552;2023-10-31T09:33:35;7.83;;;3.90;;
4986;SDS011;12674;51.500;7.552;2023-10-31T09:35:38;19.13;;;5.97;;
4986;SDS011;12674;51.500;7.552;2023-10-31T09:37:41;16.83;;;5.13;;
4986;SDS011;12674;51.500;7.552;2023-10-31T09:39:45;13.63;;;4.67;;
4986;SDS011;12674;51.500;7.552;2023-10-31T09:41:48;32.80;;;6.00;;
4986;SDS011;12674;51.500;7.552;2023-10-31T09:43:54;7.27;;;3.77;;
4986;SDS011;12674;51.500;7.552;2023-10-31T09:45:57;12.83;;;4.03;;
4986;SDS011;12674;51.500;7.552;2023-10-31T09:48:03;12.97;;;4.27;;
4986;SDS011;12674;51.500;7.552;2023-10-31T09:50:07;5.70;;;3.73;;
4986;SDS011;12674;51.500;7.552;2023-10-31T09:52:11;7.73;;;3.97;;
4986;SDS011;12674;51.500;7.552;2023-10-31T09:54:14;7.50;;;3.50;;
4986;SDS011;12674;51.500;7.552;2023-10-31T09:56:19;6.03;;;3.88;;
4986;SDS011;12674;51.500;7.552;2023-10-31T09:58:22;9.70;;;4.20;;
4986;SDS011;12674;51.500;7.552;2023-10-31T10:00:25;6.10;;;3.88;;
4986;SDS011;12674;51.500;7.552;2023-10-31T10:02:28;6.03;;;3.70;;
4986;SDS011;12674;51.500;7.552;2023-10-31T10:04:33;6.43;;;3.58;;
4986;SDS011;12674;51.500;7.552;2023-10-31T10:06:39;7.53;;;3.60;;
4986;SDS011;12674;51.500;7.552;2023-10-31T10:08:45;5.57;;;3.70;;
4986;SDS011;12674;51.500;7.552;2023-10-31T10:10:48;7.03;;;3.30;;
4986;SDS011;12674;51.500;7.552;2023-10-31T10:12:52;5.97;;;3.20;;
4986;SDS011;12674;51.500;7.552;2023-10-31T10:14:56;4.00;;;3.30;;
4986;SDS011;12674;51.500;7.552;2023-10-31T10:17:00;6.63;;;3.87;;
4986;SDS011;12674;51.500;7.552;2023-10-31T10:19:14;7.80;;;3.53;;
4986;SDS011;12674;51.500;7.552;2023-10-31T10:21:18;7.73;;;3.70;;
4986;SDS011;12674;51.500;7.552;2023-10-31T10:23:21;9.90;;;3.77;;
4986;SDS011;12674;51.500;7.552;2023-10-31T10:25:24;6.57;;;3.30;;
4986;SDS011;12674;51.500;7.552;2023-10-31T10:27:31;4.60;;;3.30;;
4986;SDS011;12674;51.500;7.552;2023-10-31T10:29:35;35.40;;;6.40;;
4986;SDS011;12674;51.500;7.552;2023-10-31T10:31:38;12.88;;;4.22;;
4986;SDS011;12674;51.500;7.552;2023-10-31T10:33:41;13.15;;;3.67;;
4986;SDS011;12674;51.500;7.552;2023-10-31T10:35:44;5.93;;;3.20;;
4986;SDS011;12674;51.500;7.552;2023-10-31T10:37:51;5.90;;;3.13;;
4986;SDS011;12674;51.500;7.552;2023-10-31T10:39:56;7.45;;;3.05;;
4986;SDS011;12674;51.500;7.552;2023-10-31T10:42:01;5.35;;;3.20;;
4986;SDS011;12674;51.500;7.552;2023-10-31T10:44:04;8.90;;;3.85;;
4986;SDS011;12674;51.500;7.552;2023-10-31T10:46:08;7.97;;;3.30;;
4986;SDS011;12674;51.500;7.552;2023-10-31T10:48:15;12.48;;;3.40;;
4986;SDS011;12674;51.500;7.552;2023-10-31T10:50:19;8.70;;;3.10;;
4986;SDS011;12674;51.500;7.552;2023-10-31T10:52:26;17.23;;;4.40;;
4986;SDS011;12674;51.500;7.552;2023-10-31T10:54:34;8.90;;;3.05;;
4986;SDS011;12674;51.500;7.552;2023-10-31T10:56:41;8.20;;;3.40;;
4986;SDS011;12674;51.500;7.552;2023-10-31T10:59:03;9.90;;;3.95;;
4986;SDS011;12674;51.500;7.552;2023-10-31T11:01:11;7.20;;;3.97;;
4986;SDS011;12674;51.500;7.552;2023-10-31T11:03:15;7.40;;;3.30;;
4986;SDS011;12674;51.500;7.552;2023-10-31T11:05:19;11.75;;;4.40;;
4986;SDS011;12674;51.500;7.552;2023-10-31T11:07:22;12.82;;;3.72;;
4986;SDS011;12674;51.500;7.552;2023-10-31T11:09:27;12.95;;;4.68;;
4986;SDS011;12674;51.500;7.552;2023-10-31T11:11:32;14.90;;;4.85;;
4986;SDS011;12674;51.500;7.552;2023-10-31T11:13:35;9.60;;;4.67;;
4986;SDS011;12674;51.500;7.552;2023-10-31T11:15:37;8.55;;;4.30;;
4986;SDS011;12674;51.500;7.552;2023-10-31T11:17:42;8.95;;;3.63;;
4986;SDS011;12674;51.500;7.552;2023-10-31T11:19:45;5.28;;;3.20;;
4986;SDS011;12674;51.500;7.552;2023-10-31T11:21:55;4.43;;;3.30;;
4986;SDS011;12674;51.500;7.552;2023-10-31T11:23:58;13.20;;;4.33;;
4986;SDS011;12674;51.500;7.552;2023-10-31T11:26:01;10.02;;;3.72;;
4986;SDS011;12674;51.500;7.552;2023-10-31T11:28:12;9.30;;;4.57;;
4986;SDS011;12674;51.500;7.552;2023-10-31T11:30:22;12.50;;;4.10;;
4986;SDS011;12674;51.500;7.552;2023-10-31T11:32:31;10.87;;;4.13;;
4986;SDS011;12674;51.500;7.552;2023-10-31T11:34:34;10.50;;;3.77;;
4986;SDS011;12674;51.500;7.552;2023-10-31T11:36:39;6.50;;;3.93;;
4986;SDS011;12674;51.500;7.552;2023-10-31T11:38:43;8.77;;;4.55;;
4986;SDS011;12674;51.500;7.552;2023-10-31T11:40:58;8.57;;;4.23;;
4986;SDS011;12674;51.500;7.552;2023-10-31T11:43:03;9.45;;;4.38;;
4986;SDS011;12674;51.500;7.552;2023-10-31T11:45:08;7.05;;;3.53;;
4986;SDS011;12674;51.500;7.552;2023-10-31T11:47:15;11.43;;;3.90;;
4986;SDS011;12674;51.500;7.552;2023-10-31T11:49:18;11.07;;;3.60;;
4986;SDS011;12674;51.500;7.552;2023-10-31T11:51:21;7.90;;;4.03;;
4986;SDS011;12674;51.500;7.552;2023-10-31T11:53:23;10.37;;;4.30;;
4986;SDS011;12674;51.500;7.552;2023-10-31T11:55:26;12.33;;;3.83;;
4986;SDS011;12674;51.500;7.552;2023-10-31T11:57:29;6.83;;;3.93;;
4986;SDS011;12674;51.500;7.552;2023-10-31T11:59:35;9.63;;;3.70;;
4986;SDS011;12674;51.500;7.552;2023-10-31T12:01:46;8.70;;;3.87;;
4986;SDS011;12674;51.500;7.552;2023-10-31T12:03:52;9.18;;;3.58;;
4986;SDS011;12674;51.500;7.552;2023-10-31T12:05:54;8.85;;;3.40;;
4986;SDS011;12674;51.500;7.552;2023-10-31T12:07:58;5.95;;;3.65;;
4986;SDS011;12674;51.500;7.552;2023-10-31T12:10:01;12.02;;;3.67;;
4986;SDS011;12674;51.500;7.552;2023-10-31T12:12:03;12.50;;;3.10;;
4986;SDS011;12674;51.500;7.552;2023-10-31T12:14:07;8.13;;;3.30;;
4986;SDS011;12674;51.500;7.552;2023-10-31T12:16:11;8.35;;;3.03;;
4986;SDS011;12674;51.500;7.552;2023-10-31T12:18:15;6.70;;;2.80;;
4986;SDS011;12674;51.500;7.552;2023-10-31T12:20:19;11.15;;;3.35;;
4986;SDS011;12674;51.500;7.552;2023-10-31T12:22:23;9.00;;;3.00;;
4986;SDS011;12674;51.500;7.552;2023-10-31T12:24:26;4.30;;;2.58;;
4986;SDS011;12674;51.500;7.552;2023-10-31T12:26:28;8.45;;;2.50;;
4986;SDS011;12674;51.500;7.552;2023-10-31T12:28:31;10.75;;;3.50;;
4986;SDS011;12674;51.500;7.552;2023-10-31T12:30:34;7.47;;;2.65;;
4986;SDS011;12674;51.500;7.552;2023-10-31T12:32:53;7.28;;;2.70;;